createdAt,value
2022-11-24T00:01:16.633Z,100077.78
2022-11-24T00:03:46.522Z,100072.78
2022-11-24T00:06:15.543Z,100069.03
2022-11-24T00:08:45.108Z,100077.19
2022-11-24T00:11:14.648Z,100076.72
2022-11-24T00:13:42.665Z,100084.63
2022-11-24T00:16:12.575Z,100079.84
2022-11-24T00:18:41.101Z,100086.53
2022-11-24T00:21:10.672Z,100081.16
2022-11-24T00:23:38.838Z,100093.47
2022-11-24T00:26:08.383Z,100094.91
2022-11-24T00:28:36.917Z,100086.06
2022-11-24T00:31:06.119Z,100088.81
2022-11-24T00:33:33.989Z,100087.72
2022-11-24T00:36:02.256Z,100084.97
2022-11-24T00:38:31.414Z,100086.75
2022-11-24T00:40:59.230Z,100099.91
2022-11-24T00:43:27.175Z,100099.91
2022-11-24T00:45:55.085Z,100093.81
2022-11-24T00:48:23.538Z,100094.66
2022-11-24T00:50:57.439Z,100097.97
2022-11-24T00:53:25.501Z,100098.72
2022-11-24T00:55:55.176Z,100093.31
2022-11-24T00:58:23.544Z,100082.94
2022-11-24T01:00:51.687Z,100089.97
2022-11-24T01:03:20.463Z,100104.41
2022-11-24T01:05:48.301Z,100100.38
2022-11-24T01:08:16.183Z,100106.09
2022-11-24T01:10:43.919Z,100106.09
2022-11-24T01:13:13.311Z,100119.97
2022-11-24T01:15:41.272Z,100119.97
2022-11-24T01:18:09.104Z,100119.97
2022-11-24T01:20:37.649Z,100117.56
2022-11-24T01:23:05.439Z,100124.50
2022-11-24T01:25:33.150Z,100121.03
2022-11-24T01:28:00.928Z,100120.47
2022-11-24T01:30:30.176Z,100122.97
2022-11-24T01:32:57.928Z,100126.44
2022-11-24T01:35:25.659Z,100125.72
2022-11-24T01:37:53.414Z,100131.00
2022-11-24T01:40:21.645Z,100129.31
2022-11-24T01:42:50.898Z,100131.00
2022-11-24T01:45:44.676Z,100144.16
2022-11-24T01:48:17.205Z,100146.78
2022-11-24T01:50:45.506Z,100145.09
2022-11-24T01:53:13.570Z,100148.44
2022-11-24T01:55:41.817Z,100148.44
2022-11-24T01:58:12.731Z,100163.13
2022-11-24T02:00:44.247Z,100157.75
2022-11-24T02:03:13.558Z,100158.97
2022-11-24T02:05:44.400Z,100147.38
2022-11-24T02:08:16.147Z,100159.94
2022-11-24T02:10:44.382Z,100159.22
2022-11-24T02:13:12.241Z,100157.44
2022-11-24T02:15:40.041Z,100159.22
2022-11-24T02:18:09.403Z,100161.84
2022-11-24T02:20:38.091Z,100164.50
2022-11-24T02:23:11.330Z,100179.06
2022-11-24T02:25:48.337Z,100172.38
2022-11-24T02:28:19.527Z,100176.44
2022-11-24T02:30:47.341Z,100180.03
2022-11-24T02:33:15.585Z,100178.09
2022-11-24T02:35:43.611Z,100177.25
2022-11-24T02:38:13.336Z,100180.72
2022-11-24T02:40:43.029Z,100167.81
2022-11-24T02:43:14.269Z,100176.16
2022-11-24T02:45:43.396Z,100191.03
2022-11-24T02:48:11.187Z,100188.41
2022-11-24T02:50:39.238Z,100190.28
2022-11-24T02:53:07.106Z,100193.66
2022-11-24T02:58:02.748Z,100190.28
2022-11-24T03:00:30.468Z,100199.84
2022-11-24T03:02:59.743Z,100201.56
2022-11-24T03:05:27.825Z,100186.69
2022-11-24T03:07:55.631Z,100191.72
2022-11-24T03:10:24.414Z,100197.97
2022-11-24T03:12:52.197Z,100196.38
2022-11-24T03:15:19.960Z,100198.09
2022-11-24T03:17:47.676Z,100199.84
2022-11-24T03:20:17.179Z,100194.59
2022-11-24T03:22:44.898Z,100194.50
2022-11-24T03:25:12.634Z,100193.53
2022-11-24T03:27:40.427Z,100192.91
2022-11-24T03:30:09.499Z,100198.09
2022-11-24T03:32:37.260Z,100198.91
2022-11-24T03:35:06.082Z,100209.44
2022-11-24T03:37:35.302Z,100210.28
2022-11-24T03:40:03.076Z,100208.69
2022-11-24T03:42:30.868Z,100213.13
2022-11-24T03:45:04.261Z,100208.00
2022-11-24T03:47:44.691Z,100217.69
2022-11-24T03:50:12.432Z,100207.28
2022-11-24T03:52:41.603Z,100204.41
2022-11-24T03:55:09.422Z,100218.53
2022-11-24T03:57:37.123Z,100215.91
2022-11-24T04:00:06.831Z,100215.19
2022-11-24T04:02:34.704Z,100223.09
2022-11-24T04:05:02.507Z,100219.63
2022-11-24T04:07:30.305Z,100230.97
2022-11-24T04:09:59.680Z,100229.53
2022-11-24T04:12:44.530Z,100231.94
2022-11-24T04:15:13.227Z,100234.56
2022-11-24T04:17:40.899Z,100241.50
2022-11-24T04:20:09.840Z,100233.81
2022-11-24T04:22:37.524Z,100252.72
2022-11-24T04:25:08.293Z,100247.47
2022-11-24T04:27:37.022Z,100248.19
2022-11-24T04:30:04.958Z,100250.09
2022-11-24T04:32:32.597Z,100261.34
2022-11-24T04:35:00.224Z,100258.69
2022-11-24T04:37:28.082Z,100257.75
2022-11-24T04:39:55.992Z,100254.06
2022-11-24T04:42:25.020Z,100266.25
2022-11-24T04:44:52.656Z,100273.06
2022-11-24T04:47:23.941Z,100273.06
2022-11-24T04:49:51.878Z,100282.75
2022-11-24T04:52:20.844Z,100282.88
2022-11-24T04:54:48.643Z,100281.19
2022-11-24T04:57:17.287Z,100295.31
2022-11-24T04:59:46.464Z,100289.31
2022-11-24T05:02:14.194Z,100297.47
2022-11-24T05:04:42.102Z,100304.41
2022-11-24T05:07:17.769Z,100298.28
2022-11-24T05:10:03.711Z,100295.53
2022-11-24T05:12:32.114Z,100297.72
2022-11-24T05:15:01.995Z,100310.75
2022-11-24T05:17:30.830Z,100308.22
2022-11-24T05:19:58.754Z,100315.16
2022-11-24T05:22:26.957Z,100314.91
2022-11-24T05:24:54.631Z,100320.19
2022-11-24T05:27:22.479Z,100320.06
2022-11-24T05:29:50.363Z,100318.03
2022-11-24T05:32:19.686Z,100318.63
2022-11-24T05:34:47.968Z,100324.72
2022-11-24T05:37:15.621Z,100314.19
2022-11-24T05:39:43.606Z,100318.41
2022-11-24T05:42:28.845Z,100316.97
2022-11-24T05:44:57.429Z,100329.97
2022-11-24T05:47:26.635Z,100322.94
2022-11-24T05:49:54.294Z,100340.41
2022-11-24T05:52:22.105Z,100343.88
2022-11-24T05:54:49.773Z,100342.09
2022-11-24T05:57:17.663Z,100349.72
2022-11-24T05:59:46.117Z,100343.50
2022-11-24T06:02:14.119Z,100358.97
2022-11-24T06:04:43.302Z,100373.78
2022-11-24T06:07:11.967Z,100369.25
2022-11-24T06:09:40.475Z,100377.84
2022-11-24T06:12:08.950Z,100375.94
2022-11-24T06:14:36.764Z,100388.28
2022-11-24T06:17:05.220Z,100383.84
2022-11-24T06:19:34.132Z,100386.22
2022-11-24T06:22:05.520Z,100399.41
2022-11-24T06:24:33.467Z,100402.75
2022-11-24T06:27:01.436Z,100406.47
2022-11-24T06:29:29.055Z,100411.84
2022-11-24T06:31:56.996Z,100412.81
2022-11-24T06:34:24.784Z,100424.19
2022-11-24T06:36:52.496Z,100416.63
2022-11-24T06:39:21.536Z,100432.19
2022-11-24T06:41:50.903Z,100444.41
2022-11-24T06:44:18.675Z,100446.91
2022-11-24T06:46:46.857Z,100443.44
2022-11-24T06:49:14.540Z,100448.47
2022-11-24T06:51:43.029Z,100460.66
2022-11-24T06:54:13.815Z,100471.94
2022-11-24T06:56:42.850Z,100473.47
2022-11-24T06:59:17.210Z,100473.38
2022-11-24T07:01:44.888Z,100475.03
2022-11-24T07:04:12.496Z,100475.88
2022-11-24T07:06:41.356Z,100481.97
2022-11-24T07:09:09.939Z,100490.84
2022-11-24T07:11:38.154Z,100499.56
2022-11-24T07:14:07.645Z,100506.63
2022-11-24T07:16:35.438Z,100507.72
2022-11-24T07:19:03.298Z,100507.13
2022-11-24T07:21:31.199Z,100514.06
2022-11-24T07:23:59.360Z,100514.28
2022-11-24T07:26:27.702Z,100523.84
2022-11-24T07:28:55.585Z,100526.47
2022-11-24T07:31:25.968Z,100526.38
2022-11-24T07:33:55.022Z,100533.53
2022-11-24T07:36:23.224Z,100537.00
2022-11-24T07:38:51.343Z,100541.44
2022-11-24T07:41:20.479Z,100544.44
2022-11-24T07:43:49.118Z,100546.13
2022-11-24T07:46:18.944Z,100546.00
2022-11-24T07:48:48.379Z,100556.41
2022-11-24T07:51:16.765Z,100555.69
2022-11-24T07:53:44.884Z,100565.03
2022-11-24T07:56:14.475Z,100561.66
2022-11-24T07:58:42.168Z,100545.72
2022-11-24T08:01:12.507Z,100575.66
2022-11-24T08:03:40.436Z,100581.88
2022-11-24T08:06:30.019Z,100578.94
2022-11-24T08:08:58.159Z,100577.25
2022-11-24T08:11:26.455Z,100585.03
2022-11-24T08:13:54.345Z,100588.50
2022-11-24T08:16:22.161Z,100589.47
2022-11-24T08:18:51.310Z,100589.47
2022-11-24T08:21:20.900Z,100598.06
2022-11-24T08:23:48.595Z,100598.91
2022-11-24T08:26:18.934Z,100597.13
2022-11-24T08:28:47.692Z,100602.75
2022-11-24T08:31:18.662Z,100595.44
2022-11-24T08:33:47.052Z,100599.03
2022-11-24T08:36:16.515Z,100614.13
2022-11-24T08:38:46.213Z,100610.53
2022-11-24T08:41:15.645Z,100624.41
2022-11-24T08:43:43.785Z,100621.53
2022-11-24T08:46:13.127Z,100624.91
2022-11-24T08:48:41.538Z,100626.72
2022-11-24T08:51:12.080Z,100633.03
2022-11-24T08:53:40.036Z,100636.28
2022-11-24T08:56:10.602Z,100643.09
2022-11-24T08:58:39.022Z,100646.69
2022-11-24T09:01:07.840Z,100650.50
2022-11-24T09:03:35.865Z,100649.22
2022-11-24T09:06:03.545Z,100647.28
2022-11-24T09:08:31.617Z,100649.84
2022-11-24T09:11:01.262Z,100650.69
2022-11-24T09:13:30.541Z,100663.00
2022-11-24T09:15:58.223Z,100666.47
2022-11-24T09:18:30.046Z,100662.06
2022-11-24T09:21:07.176Z,100665.66
2022-11-24T09:23:35.078Z,100674.25
2022-11-24T09:26:06.861Z,100676.91
2022-11-24T09:28:36.311Z,100679.53
2022-11-24T09:31:04.322Z,100678.44
2022-11-24T09:33:32.526Z,100684.56
2022-11-24T09:36:00.309Z,100688.03
2022-11-24T09:38:28.783Z,100681.72
2022-11-24T09:40:56.759Z,100680.03
2022-11-24T09:43:29.668Z,100677.63
2022-11-24T09:46:05.905Z,100680.88
2022-11-24T09:48:37.536Z,100696.31
2022-11-24T09:51:05.886Z,100698.84
2022-11-24T09:53:37.283Z,100710.31
2022-11-24T09:56:13.184Z,100709.38
2022-11-24T09:58:44.448Z,100707.59
2022-11-24T10:01:17.999Z,100708.09
2022-11-24T10:03:47.709Z,100709.69
2022-11-24T10:06:21.945Z,100718.91
2022-11-24T10:09:12.176Z,100713.75
2022-11-24T10:11:44.752Z,100726.34
2022-11-24T10:14:29.537Z,100724.22
2022-11-24T10:17:06.485Z,100720.38
2022-11-24T10:19:41.443Z,100740.31
2022-11-24T10:22:26.112Z,100749.75
2022-11-24T10:25:09.253Z,100760.19
2022-11-24T10:27:39.744Z,100752.06
2022-11-24T10:30:15.262Z,100757.09
2022-11-24T10:32:47.567Z,100763.09
2022-11-24T10:35:18.472Z,100761.00
2022-11-24T10:37:52.594Z,100768.66
2022-11-24T10:40:49.152Z,100764.97
2022-11-24T10:43:13.984Z,100770.84
2022-11-24T10:45:42.024Z,100783.91
2022-11-24T10:48:18.750Z,100779.25
2022-11-24T10:50:46.493Z,100777.31
2022-11-24T10:53:18.347Z,100771.84
2022-11-24T10:56:02.891Z,100783.81
2022-11-24T10:58:37.403Z,100794.13
2022-11-24T11:01:21.213Z,100783.38
2022-11-24T11:03:52.520Z,100790.81
2022-11-24T11:06:23.576Z,100774.03
2022-11-24T11:08:51.770Z,100785.78
2022-11-24T11:11:22.039Z,100796.34
2022-11-24T11:14:02.943Z,100791.28
2022-11-24T11:16:36.139Z,100798.34
2022-11-24T11:19:26.172Z,100787.34
2022-11-24T11:22:01.508Z,100800.91
2022-11-24T11:24:30.027Z,100799.59
2022-11-24T11:27:01.536Z,100802.13
2022-11-24T11:35:13.436Z,100818.16
2022-11-24T11:37:41.791Z,100824.66
2022-11-24T11:40:15.865Z,100833.03
2022-11-24T11:43:01.952Z,100840.00
2022-11-24T11:45:35.106Z,100840.34
2022-11-24T11:48:15.074Z,100837.94
2022-11-24T11:51:15.017Z,100836.97
2022-11-24T11:53:44.796Z,100841.31
2022-11-24T11:56:23.629Z,100835.78
2022-11-24T11:59:28.009Z,100836.75
2022-11-24T12:02:17.142Z,100836.81
2022-11-24T12:04:48.534Z,100835.47
2022-11-24T12:07:30.050Z,100830.34
2022-11-24T12:10:02.708Z,100840.06
2022-11-24T12:12:51.219Z,100833.31
2022-11-24T12:15:23.759Z,100837.63
2022-11-24T12:17:54.773Z,100838.84
2022-11-24T12:20:37.485Z,100842.94
2022-11-24T12:23:15.621Z,100841.50
2022-11-24T12:25:46.969Z,100849.69
2022-11-24T12:28:27.269Z,100844.97
2022-11-24T12:31:06.849Z,100838.63
2022-11-24T12:33:51.704Z,100840.78
2022-11-24T12:36:32.444Z,100841.50
2022-11-24T12:39:06.785Z,100849.88
2022-11-24T12:41:47.233Z,100846.28
2022-11-24T12:44:37.133Z,100849.88
2022-11-24T12:47:12.724Z,100855.91
2022-11-24T12:49:48.532Z,100842.72
2022-11-24T12:52:21.592Z,100844.97
2022-11-24T12:54:50.747Z,100843.88
2022-11-24T12:57:21.851Z,100838.59
2022-11-24T12:59:55.668Z,100838.84
2022-11-24T13:02:30.043Z,100829.38
2022-11-24T13:05:02.204Z,100835.50
2022-11-24T13:07:40.486Z,100844.13
2022-11-24T13:13:27.980Z,100846.91
2022-11-24T13:19:08.215Z,100849.16
2022-11-24T13:21:50.830Z,100850.59
2022-11-24T13:24:26.883Z,100847.59
2022-11-24T13:27:16.910Z,100862.25
2022-11-24T13:29:45.432Z,100848.19
2022-11-24T13:32:52.782Z,100853.47
2022-11-24T13:35:20.476Z,100853.47
2022-11-24T13:37:52.853Z,100865.50
2022-11-24T13:40:54.348Z,100856.47
2022-11-24T13:43:30.514Z,100869.56
2022-11-24T13:45:58.165Z,100863.78
2022-11-24T13:48:54.615Z,100875.47
2022-11-24T13:51:25.468Z,100876.56
2022-11-24T13:53:55.042Z,100879.91
2022-11-24T13:56:25.858Z,100880.03
2022-11-24T13:58:57.198Z,100876.78
2022-11-24T14:01:26.170Z,100877.03
2022-11-24T14:04:30.896Z,100874.50
2022-11-24T14:07:07.284Z,100878.13
2022-11-24T14:09:38.507Z,100873.69
2022-11-24T14:12:12.770Z,100868.03
2022-11-24T14:14:42.267Z,100867.06
2022-11-24T14:20:18.116Z,100871.03
2022-11-24T14:22:45.836Z,100863.22
2022-11-24T14:25:21.725Z,100860.94
2022-11-24T14:27:49.413Z,100871.50
2022-11-24T14:30:21.141Z,100880.38
2022-11-24T14:32:56.541Z,100882.31
2022-11-24T14:35:27.828Z,100888.44
2022-11-24T14:37:55.587Z,100887.59
2022-11-24T14:40:43.957Z,100884.47
2022-11-24T14:43:20.929Z,100883.75
2022-11-24T14:45:50.908Z,100884.72
2022-11-24T14:48:19.369Z,100885.69
2022-11-24T14:50:48.525Z,100882.19
2022-11-24T14:53:21.872Z,100888.53
2022-11-24T14:56:07.575Z,100885.91
2022-11-24T14:58:41.787Z,100887.13
2022-11-24T15:01:12.157Z,100883.13
2022-11-24T15:03:39.900Z,100889.38
2022-11-24T15:06:17.923Z,100889.72
2022-11-24T15:08:47.659Z,100894.41
2022-11-24T15:11:15.420Z,100890.09
2022-11-24T15:13:53.279Z,100886.84
2022-11-24T15:16:22.100Z,100894.28
2022-11-24T15:18:51.799Z,100889.22
2022-11-24T15:21:31.474Z,100895.47
2022-11-24T15:24:06.940Z,100897.50
2022-11-24T15:29:13.547Z,100905.53
2022-11-24T15:31:45.138Z,100910.06
2022-11-24T15:34:15.465Z,100906.84
2022-11-24T15:36:43.133Z,100911.28
2022-11-24T15:39:10.777Z,100915.09
2022-11-24T15:41:38.823Z,100903.81
2022-11-24T15:44:06.530Z,100902.47
2022-11-24T15:46:38.581Z,100909.53
2022-11-24T15:49:07.446Z,100913.38
2022-11-24T15:51:36.220Z,100917.91
2022-11-24T15:54:03.938Z,100922.47
2022-11-24T15:56:33.352Z,100916.34
2022-11-24T15:59:01.045Z,100925.34
2022-11-24T16:01:31.418Z,100920.16
2022-11-24T16:04:00.721Z,100923.75
2022-11-24T16:06:28.388Z,100928.31
2022-11-24T16:08:56.438Z,100931.06
2022-11-24T16:11:24.443Z,100937.31
2022-11-24T16:13:54.051Z,100919.06
2022-11-24T16:16:23.398Z,100914.72
2022-11-24T16:18:51.376Z,100922.66
2022-11-24T16:21:20.437Z,100919.28
2022-11-24T16:23:48.702Z,100928.16
2022-11-24T16:26:16.416Z,100929.25
2022-11-24T16:28:45.632Z,100923.31
2022-11-24T16:31:15.635Z,100926.19
2022-11-24T16:33:44.790Z,100931.69
2022-11-24T16:36:13.060Z,100932.63
2022-11-24T16:38:42.134Z,100931.91
2022-11-24T16:41:10.332Z,100934.75
2022-11-24T16:43:38.290Z,100935.72
2022-11-24T16:46:17.643Z,100935.00
2022-11-24T16:48:45.935Z,100938.59
2022-11-24T16:51:14.491Z,100927.28
2022-11-24T16:53:44.219Z,100936.22
2022-11-24T16:56:11.941Z,100937.31
2022-11-24T16:58:40.744Z,100935.63
2022-11-24T17:01:10.680Z,100941.03
2022-11-24T17:03:38.630Z,100934.16
2022-11-24T17:06:07.869Z,100943.00
2022-11-24T17:08:36.746Z,100944.69
2022-11-24T17:11:08.183Z,100937.84
2022-11-24T17:13:35.874Z,100934.50
2022-11-24T17:16:05.464Z,100929.34
2022-11-24T17:18:33.250Z,100935.53
2022-11-24T17:21:07.671Z,100926.91
2022-11-24T17:23:37.091Z,100925.34
2022-11-24T17:26:07.337Z,100924.50
2022-11-24T17:28:35.389Z,100914.41
2022-11-24T17:31:07.163Z,100922.84
2022-11-24T17:33:35.107Z,100922.06
2022-11-24T17:36:03.901Z,100933.44
2022-11-24T17:38:32.038Z,100930.94
2022-11-24T17:40:59.749Z,100919.03
2022-11-24T17:43:28.749Z,100924.94
2022-11-24T17:45:57.638Z,100929.50
2022-11-24T17:48:25.531Z,100931.47
2022-11-24T17:51:00.189Z,100930.63
2022-11-24T17:53:27.864Z,100935.06
2022-11-24T17:55:55.516Z,100928.13
2022-11-24T17:58:23.278Z,100922.97
2022-11-24T18:00:52.840Z,100923.91
2022-11-24T18:03:20.536Z,100927.59
2022-11-24T18:05:48.240Z,100932.97
2022-11-24T18:08:15.890Z,100936.56
2022-11-24T18:10:43.765Z,100939.94
2022-11-24T18:13:27.440Z,100939.19
2022-11-24T18:16:02.049Z,100929.72
2022-11-24T18:18:29.823Z,100942.06
2022-11-24T18:20:57.662Z,100948.25
2022-11-24T18:23:25.563Z,100951.72
2022-11-24T18:25:54.101Z,100945.63
2022-11-24T18:28:22.168Z,100950.16
2022-11-24T18:30:50.137Z,100955.78
2022-11-24T18:33:19.358Z,100955.78
2022-11-24T18:35:56.763Z,100954.91
2022-11-24T18:38:24.643Z,100954.16
2022-11-24T18:40:56.019Z,100959.44
2022-11-24T18:43:24.182Z,100959.56
2022-11-24T18:45:53.087Z,100958.94
2022-11-24T18:48:23.036Z,100958.06
2022-11-24T18:50:51.771Z,100965.25
2022-11-24T18:53:19.859Z,100961.88
2022-11-24T18:55:55.806Z,100966.31
2022-11-24T18:58:23.577Z,100963.56
2022-11-24T19:00:51.427Z,100971.56
2022-11-24T19:03:19.322Z,100968.81
2022-11-24T19:05:48.340Z,100968.72
2022-11-24T19:08:16.015Z,100961.75
2022-11-24T19:10:45.252Z,100956.59
2022-11-24T19:13:14.323Z,100961.03
2022-11-24T19:15:41.953Z,100952.19
2022-11-24T19:18:09.595Z,100963.66
2022-11-24T19:20:37.298Z,100955.97
2022-11-24T19:23:06.416Z,100966.59
2022-11-24T19:25:34.134Z,100954.28
2022-11-24T19:28:01.819Z,100953.25
2022-11-24T19:30:30.175Z,100940.50
2022-11-24T19:32:58.123Z,100955.13
2022-11-24T19:35:25.823Z,100959.66
2022-11-24T19:37:53.527Z,100964.09
2022-11-24T19:40:22.587Z,100956.19
2022-11-24T19:42:50.857Z,100949.25
2022-11-24T19:45:18.540Z,100961.44
2022-11-24T19:47:46.167Z,100961.44
2022-11-24T19:50:13.949Z,100968.41
2022-11-24T19:52:41.607Z,100953.44
2022-11-24T19:55:09.971Z,100953.56
2022-11-24T19:57:39.020Z,100952.59
2022-11-24T20:00:09.531Z,100957.13
2022-11-24T20:02:37.344Z,100962.41
2022-11-24T20:05:05.366Z,100956.41
2022-11-24T20:07:33.005Z,100953.25
2022-11-24T20:10:06.089Z,100954.91
2022-11-24T20:12:35.329Z,100960.28
2022-11-24T20:15:04.957Z,100960.41
2022-11-24T20:17:32.857Z,100953.53
2022-11-24T20:20:00.601Z,100951.13
2022-11-24T20:22:28.247Z,100951.34
2022-11-24T20:24:55.941Z,100955.97
2022-11-24T20:27:23.633Z,100954.28
2022-11-24T20:29:51.266Z,100954.28
2022-11-24T20:32:20.699Z,100949.13
2022-11-24T20:34:49.351Z,100954.50
2022-11-24T20:37:17.008Z,100954.28
2022-11-24T20:39:44.607Z,100954.41
2022-11-24T20:42:12.274Z,100958.72
2022-11-24T20:44:39.959Z,100950.91
2022-11-24T20:47:07.668Z,100946.38
2022-11-24T20:49:36.776Z,100941.22
2022-11-24T20:52:04.536Z,100944.81
2022-11-24T20:54:32.220Z,100943.97
2022-11-24T20:57:00.038Z,100950.91
2022-11-24T20:59:27.780Z,100954.50
2022-11-24T21:01:56.168Z,100952.91
2022-11-24T21:04:25.327Z,100949.44
2022-11-24T21:06:54.688Z,100938.91
2022-11-24T21:09:22.460Z,100938.06
2022-11-24T21:11:50.627Z,100942.47
2022-11-24T21:14:18.341Z,100960.19
2022-11-24T21:16:46.138Z,100957.84
2022-11-24T21:19:17.766Z,100954.19
2022-11-24T21:21:47.431Z,100961.13
2022-11-24T21:24:17.913Z,100956.06
2022-11-24T21:26:47.820Z,100952.56
2022-11-24T21:29:17.566Z,100956.16
2022-11-24T21:31:45.654Z,100944.38
2022-11-24T21:34:16.259Z,100947.72
2022-11-24T21:36:45.555Z,100951.22
2022-11-24T21:39:14.532Z,100948.59
2022-11-24T21:41:44.710Z,100951.97
2022-11-24T21:44:12.865Z,100947.72
2022-11-24T21:46:44.963Z,100942.69
2022-11-24T21:49:15.937Z,100935.09
2022-11-24T21:51:43.531Z,100940.34
2022-11-24T21:54:11.247Z,100943.94
2022-11-24T21:56:38.929Z,100943.94
2022-11-24T21:59:08.042Z,100933.63
2022-11-24T22:01:35.809Z,100936.25
2022-11-24T22:04:03.467Z,100932.78
2022-11-24T22:06:32.086Z,100927.50
2022-11-24T22:08:59.796Z,100923.22
2022-11-24T22:11:27.474Z,100922.38
2022-11-24T22:13:55.176Z,100924.03
2022-11-24T22:16:25.571Z,100920.56
2022-11-24T22:18:53.657Z,100916.34
2022-11-24T22:21:23.785Z,100924.22
2022-11-24T22:23:52.343Z,100921.59
2022-11-24T22:26:22.301Z,100919.06
2022-11-24T22:28:50.297Z,100916.56
2022-11-24T22:31:19.441Z,100923.72
2022-11-24T22:33:49.237Z,100915.94
2022-11-24T22:36:18.232Z,100926.34
2022-11-24T22:38:45.883Z,100917.63
2022-11-24T22:41:15.111Z,100920.13
2022-11-24T22:43:43.654Z,100925.28
2022-11-24T22:46:12.699Z,100916.34
2022-11-24T22:48:41.167Z,100909.28
2022-11-24T22:51:11.912Z,100911.91
2022-11-24T22:53:39.652Z,100903.84
2022-11-24T22:56:09.823Z,100905.41
2022-11-24T22:58:37.706Z,100895.00
2022-11-24T23:01:06.465Z,100895.84
2022-11-24T23:03:35.104Z,100891.63
2022-11-24T23:06:02.934Z,100900.16
2022-11-24T23:08:33.852Z,100908.03
2022-11-24T23:11:02.092Z,100901.81
2022-11-24T23:13:29.821Z,100893.94
2022-11-24T23:16:01.319Z,100891.00
2022-11-24T23:18:29.140Z,100883.13
2022-11-24T23:20:56.864Z,100879.63
2022-11-24T23:23:24.753Z,100879.75
2022-11-24T23:25:54.109Z,100872.59
2022-11-24T23:28:21.733Z,100871.75
2022-11-24T23:30:49.338Z,100878.69
2022-11-24T23:33:17.140Z,100876.16
2022-11-24T23:35:44.856Z,100882.28
2022-11-24T23:38:12.502Z,100865.75
2022-11-24T23:40:40.159Z,100869.31
2022-11-24T23:43:09.219Z,100871.94
2022-11-24T23:45:36.901Z,100857.94
2022-11-24T23:48:05.273Z,100852.91
2022-11-24T23:50:32.957Z,100856.16
2022-11-24T23:53:00.704Z,100850.03
2022-11-24T23:55:28.275Z,100847.53
2022-11-24T23:57:55.920Z,100851.09
